Smoke Signal, Arizona
Current Conditions -  °F | °C
As of 1:53 PM on Wednesday 26 Nov 2014 (Local Time) from KGUP Reporting Station
Clear Clear  
Wind Chill: 59°   Ceiling: Unl
Heat Index: 59°   Visibility: 10mi
Dew Point: 17°   Wind: 5mph
Humidity: 20%   Direction: NA
Pressure: 30.37"   Gusts: NA
Location:  36.1012°N, 109.584°W
Report Text: KGUP 262053Z AUTO VRB04KT 10SM CLR 15/M08 A3037 RMK AO2 SLP263 T01501083 56020
Loading
Personal Weather Stations






























Interactive Weather Map New forecast layout! Learn more

10-Day Weather Forecast

Advertisements
Track Severe Weather on mobile